sensor_id;sensor_type;location;lat;lon;timestamp;temperature;humidity
32811;DHT22;65470;47.324;8.548;2023-03-20T00:00:30;10.20;99.90
32811;DHT22;65470;47.324;8.548;2023-03-20T00:02:56;10.30;99.90
32811;DHT22;65470;47.324;8.548;2023-03-20T00:05:24;10.30;99.90
32811;DHT22;65470;47.324;8.548;2023-03-20T00:07:50;10.30;99.90
32811;DHT22;65470;47.324;8.548;2023-03-20T00:10:17;10.30;99.90
32811;DHT22;65470;47.324;8.548;2023-03-20T00:12:44;10.30;99.90
32811;DHT22;65470;47.324;8.548;2023-03-20T00:17:44;10.30;99.90
32811;DHT22;65470;47.324;8.548;2023-03-20T00:20:14;10.20;99.90
32811;DHT22;65470;47.324;8.548;2023-03-20T00:22:40;10.30;99.90
32811;DHT22;65470;47.324;8.548;2023-03-20T00:25:06;10.30;99.90
32811;DHT22;65470;47.324;8.548;2023-03-20T00:27:31;10.30;99.90
32811;DHT22;65470;47.324;8.548;2023-03-20T00:29:57;10.30;99.90
32811;DHT22;65470;47.324;8.548;2023-03-20T00:32:23;10.30;99.90
32811;DHT22;65470;47.324;8.548;2023-03-20T00:34:48;10.30;99.90
32811;DHT22;65470;47.324;8.548;2023-03-20T00:37:14;10.30;99.90
32811;DHT22;65470;47.324;8.548;2023-03-20T00:39:40;10.20;99.90
32811;DHT22;65470;47.324;8.548;2023-03-20T00:42:08;10.20;99.90
32811;DHT22;65470;47.324;8.548;2023-03-20T00:44:40;10.20;99.90
32811;DHT22;65470;47.324;8.548;2023-03-20T00:47:16;10.30;99.90
32811;DHT22;65470;47.324;8.548;2023-03-20T00:49:42;10.30;99.90
32811;DHT22;65470;47.324;8.548;2023-03-20T00:52:10;10.30;99.90
32811;DHT22;65470;47.324;8.548;2023-03-20T00:54:39;10.30;99.90
32811;DHT22;65470;47.324;8.548;2023-03-20T01:00:00;10.30;99.90
32811;DHT22;65470;47.324;8.548;2023-03-20T01:02:29;10.30;99.90
32811;DHT22;65470;47.324;8.548;2023-03-20T01:04:55;10.30;99.90
32811;DHT22;65470;47.324;8.548;2023-03-20T01:07:21;10.30;99.90
32811;DHT22;65470;47.324;8.548;2023-03-20T01:09:47;10.30;99.90
32811;DHT22;65470;47.324;8.548;2023-03-20T01:12:14;10.30;99.90
32811;DHT22;65470;47.324;8.548;2023-03-20T01:14:41;10.30;99.90
32811;DHT22;65470;47.324;8.548;2023-03-20T01:17:18;10.30;99.90
32811;DHT22;65470;47.324;8.548;2023-03-20T01:19:44;10.30;99.90
32811;DHT22;65470;47.324;8.548;2023-03-20T01:22:10;10.30;99.90
32811;DHT22;65470;47.324;8.548;2023-03-20T01:24:35;10.30;99.90
32811;DHT22;65470;47.324;8.548;2023-03-20T01:27:01;10.30;99.90
32811;DHT22;65470;47.324;8.548;2023-03-20T01:29:30;10.30;99.90
32811;DHT22;65470;47.324;8.548;2023-03-20T01:31:56;10.30;99.90
32811;DHT22;65470;47.324;8.548;2023-03-20T01:34:22;10.30;99.90
32811;DHT22;65470;47.324;8.548;2023-03-20T01:36:52;10.30;99.90
32811;DHT22;65470;47.324;8.548;2023-03-20T01:39:20;10.30;99.90
32811;DHT22;65470;47.324;8.548;2023-03-20T01:41:49;10.30;99.90
32811;DHT22;65470;47.324;8.548;2023-03-20T01:44:29;10.30;99.90
32811;DHT22;65470;47.324;8.548;2023-03-20T01:46:55;10.20;99.90
32811;DHT22;65470;47.324;8.548;2023-03-20T01:51:47;10.20;99.90
32811;DHT22;65470;47.324;8.548;2023-03-20T01:57:03;10.20;99.90
32811;DHT22;65470;47.324;8.548;2023-03-20T01:59:39;10.20;99.90
32811;DHT22;65470;47.324;8.548;2023-03-20T02:02:06;10.30;99.90
32811;DHT22;65470;47.324;8.548;2023-03-20T02:04:36;10.30;99.90
32811;DHT22;65470;47.324;8.548;2023-03-20T02:07:04;10.40;99.90
32811;DHT22;65470;47.324;8.548;2023-03-20T02:09:30;10.30;99.90
32811;DHT22;65470;47.324;8.548;2023-03-20T02:11:56;10.30;99.90
32811;DHT22;65470;47.324;8.548;2023-03-20T02:14:23;10.40;99.90
32811;DHT22;65470;47.324;8.548;2023-03-20T02:16:49;10.30;99.90
32811;DHT22;65470;47.324;8.548;2023-03-20T02:19:28;10.30;99.90
32811;DHT22;65470;47.324;8.548;2023-03-20T02:22:37;10.40;99.90
32811;DHT22;65470;47.324;8.548;2023-03-20T02:29:14;10.50;99.90
32811;DHT22;65470;47.324;8.548;2023-03-20T02:31:30;10.40;99.90
32811;DHT22;65470;47.324;8.548;2023-03-20T02:42:59;10.50;99.90
32811;DHT22;65470;47.324;8.548;2023-03-20T02:45:43;10.50;99.90
32811;DHT22;65470;47.324;8.548;2023-03-20T02:50:49;10.50;99.90
32811;DHT22;65470;47.324;8.548;2023-03-20T02:56:25;10.50;99.90
32811;DHT22;65470;47.324;8.548;2023-03-20T03:05:15;10.60;99.90
32811;DHT22;65470;47.324;8.548;2023-03-20T03:07:43;10.60;99.90
32811;DHT22;65470;47.324;8.548;2023-03-20T03:10:15;10.60;99.90
32811;DHT22;65470;47.324;8.548;2023-03-20T03:12:46;10.70;99.90
32811;DHT22;65470;47.324;8.548;2023-03-20T03:15:38;10.60;99.90
32811;DHT22;65470;47.324;8.548;2023-03-20T03:18:06;10.60;99.90
32811;DHT22;65470;47.324;8.548;2023-03-20T03:20:37;10.60;99.90
32811;DHT22;65470;47.324;8.548;2023-03-20T03:23:04;10.70;99.90
32811;DHT22;65470;47.324;8.548;2023-03-20T03:25:39;10.70;99.90
32811;DHT22;65470;47.324;8.548;2023-03-20T03:28:34;10.70;99.90
32811;DHT22;65470;47.324;8.548;2023-03-20T03:31:05;10.70;99.90
32811;DHT22;65470;47.324;8.548;2023-03-20T03:33:32;10.70;99.90
32811;DHT22;65470;47.324;8.548;2023-03-20T03:36:10;10.70;99.90
32811;DHT22;65470;47.324;8.548;2023-03-20T03:38:57;10.70;99.90
32811;DHT22;65470;47.324;8.548;2023-03-20T03:44:06;10.60;99.90
32811;DHT22;65470;47.324;8.548;2023-03-20T03:46:44;10.60;99.90
32811;DHT22;65470;47.324;8.548;2023-03-20T03:49:14;10.60;99.90
32811;DHT22;65470;47.324;8.548;2023-03-20T03:51:43;10.60;99.90
32811;DHT22;65470;47.324;8.548;2023-03-20T03:54:17;10.60;99.90
32811;DHT22;65470;47.324;8.548;2023-03-20T03:56:46;10.60;99.90
32811;DHT22;65470;47.324;8.548;2023-03-20T03:59:19;10.70;99.90
32811;DHT22;65470;47.324;8.548;2023-03-20T04:01:48;10.70;99.90
32811;DHT22;65470;47.324;8.548;2023-03-20T04:04:15;10.70;99.90
32811;DHT22;65470;47.324;8.548;2023-03-20T04:06:42;10.70;99.90
32811;DHT22;65470;47.324;8.548;2023-03-20T04:09:08;10.70;99.90
32811;DHT22;65470;47.324;8.548;2023-03-20T04:11:33;10.70;99.90
32811;DHT22;65470;47.324;8.548;2023-03-20T04:14:00;10.70;99.90
32811;DHT22;65470;47.324;8.548;2023-03-20T04:16:25;10.70;99.90
32811;DHT22;65470;47.324;8.548;2023-03-20T04:18:51;10.70;99.90
32811;DHT22;65470;47.324;8.548;2023-03-20T04:21:17;10.70;99.90
32811;DHT22;65470;47.324;8.548;2023-03-20T04:23:43;10.70;99.90
32811;DHT22;65470;47.324;8.548;2023-03-20T04:26:09;10.70;99.90
32811;DHT22;65470;47.324;8.548;2023-03-20T04:28:35;10.70;99.90
32811;DHT22;65470;47.324;8.548;2023-03-20T04:31:01;10.70;99.90
32811;DHT22;65470;47.324;8.548;2023-03-20T04:33:28;10.70;99.90
32811;DHT22;65470;47.324;8.548;2023-03-20T04:35:54;10.50;99.90
32811;DHT22;65470;47.324;8.548;2023-03-20T04:38:20;10.40;99.90
32811;DHT22;65470;47.324;8.548;2023-03-20T04:40:47;10.40;99.90
32811;DHT22;65470;47.324;8.548;2023-03-20T04:43:14;10.30;99.90
32811;DHT22;65470;47.324;8.548;2023-03-20T04:45:40;10.30;99.90
32811;DHT22;65470;47.324;8.548;2023-03-20T04:48:06;10.30;99.90
32811;DHT22;65470;47.324;8.548;2023-03-20T04:50:31;10.40;99.90
32811;DHT22;65470;47.324;8.548;2023-03-20T04:52:57;10.40;99.90
32811;DHT22;65470;47.324;8.548;2023-03-20T04:55:23;10.30;99.90
32811;DHT22;65470;47.324;8.548;2023-03-20T04:57:49;10.40;99.90
32811;DHT22;65470;47.324;8.548;2023-03-20T05:00:15;10.50;99.90
32811;DHT22;65470;47.324;8.548;2023-03-20T05:02:41;10.40;99.90
32811;DHT22;65470;47.324;8.548;2023-03-20T05:05:07;10.40;99.90
32811;DHT22;65470;47.324;8.548;2023-03-20T05:07:33;10.50;99.90
32811;DHT22;65470;47.324;8.548;2023-03-20T05:09:59;10.50;99.90
32811;DHT22;65470;47.324;8.548;2023-03-20T05:12:24;10.50;99.90
32811;DHT22;65470;47.324;8.548;2023-03-20T05:14:51;10.50;99.90
32811;DHT22;65470;47.324;8.548;2023-03-20T05:17:19;10.50;99.90
32811;DHT22;65470;47.324;8.548;2023-03-20T05:19:45;10.60;99.90
32811;DHT22;65470;47.324;8.548;2023-03-20T05:22:11;10.50;99.90
32811;DHT22;65470;47.324;8.548;2023-03-20T05:24:37;10.50;99.90
32811;DHT22;65470;47.324;8.548;2023-03-20T05:27:03;10.40;99.90
32811;DHT22;65470;47.324;8.548;2023-03-20T05:29:28;10.30;99.90
32811;DHT22;65470;47.324;8.548;2023-03-20T05:31:54;10.30;99.90
32811;DHT22;65470;47.324;8.548;2023-03-20T05:34:20;10.20;99.90
32811;DHT22;65470;47.324;8.548;2023-03-20T05:36:46;10.20;99.90
32811;DHT22;65470;47.324;8.548;2023-03-20T05:39:12;10.20;99.90
32811;DHT22;65470;47.324;8.548;2023-03-20T05:41:37;10.30;99.90
32811;DHT22;65470;47.324;8.548;2023-03-20T05:44:03;10.20;99.90
32811;DHT22;65470;47.324;8.548;2023-03-20T05:46:29;10.20;99.90
32811;DHT22;65470;47.324;8.548;2023-03-20T05:48:55;10.20;99.90
32811;DHT22;65470;47.324;8.548;2023-03-20T05:51:20;10.20;99.90
32811;DHT22;65470;47.324;8.548;2023-03-20T05:53:46;10.20;99.90
32811;DHT22;65470;47.324;8.548;2023-03-20T05:56:12;10.20;99.90
32811;DHT22;65470;47.324;8.548;2023-03-20T05:58:37;10.30;99.90
32811;DHT22;65470;47.324;8.548;2023-03-20T06:01:03;10.30;99.90
32811;DHT22;65470;47.324;8.548;2023-03-20T06:03:29;10.40;99.90
32811;DHT22;65470;47.324;8.548;2023-03-20T06:05:55;10.40;99.90
32811;DHT22;65470;47.324;8.548;2023-03-20T06:08:20;10.50;99.90
32811;DHT22;65470;47.324;8.548;2023-03-20T06:10:47;10.60;99.90
32811;DHT22;65470;47.324;8.548;2023-03-20T06:13:14;10.60;99.90
32811;DHT22;65470;47.324;8.548;2023-03-20T06:15:40;10.70;99.90
32811;DHT22;65470;47.324;8.548;2023-03-20T06:18:05;10.60;99.90
32811;DHT22;65470;47.324;8.548;2023-03-20T06:20:31;10.60;99.90
32811;DHT22;65470;47.324;8.548;2023-03-20T06:22:57;10.60;99.90
32811;DHT22;65470;47.324;8.548;2023-03-20T06:25:22;10.60;99.90
32811;DHT22;65470;47.324;8.548;2023-03-20T06:27:48;10.80;99.90
32811;DHT22;65470;47.324;8.548;2023-03-20T06:30:14;11.10;99.90
32811;DHT22;65470;47.324;8.548;2023-03-20T06:32:41;11.70;99.90
32811;DHT22;65470;47.324;8.548;2023-03-20T06:35:07;12.20;99.90
32811;DHT22;65470;47.324;8.548;2023-03-20T06:37:33;12.90;99.90
32811;DHT22;65470;47.324;8.548;2023-03-20T06:40:01;13.70;99.90
32811;DHT22;65470;47.324;8.548;2023-03-20T06:42:26;14.90;99.90
32811;DHT22;65470;47.324;8.548;2023-03-20T06:44:52;15.50;99.90
32811;DHT22;65470;47.324;8.548;2023-03-20T06:47:18;16.10;99.90
32811;DHT22;65470;47.324;8.548;2023-03-20T06:49:43;16.20;99.90
32811;DHT22;65470;47.324;8.548;2023-03-20T06:52:16;15.90;99.90
32811;DHT22;65470;47.324;8.548;2023-03-20T06:54:42;15.00;99.90
32811;DHT22;65470;47.324;8.548;2023-03-20T06:57:08;15.40;99.90
32811;DHT22;65470;47.324;8.548;2023-03-20T06:59:34;16.50;99.90
32811;DHT22;65470;47.324;8.548;2023-03-20T07:02:01;17.70;99.90
32811;DHT22;65470;47.324;8.548;2023-03-20T07:04:26;18.60;99.80
32811;DHT22;65470;47.324;8.548;2023-03-20T07:06:52;19.30;93.60
32811;DHT22;65470;47.324;8.548;2023-03-20T07:09:18;19.70;92.30
32811;DHT22;65470;47.324;8.548;2023-03-20T07:11:44;19.60;93.40
32811;DHT22;65470;47.324;8.548;2023-03-20T07:14:10;19.90;92.00
32811;DHT22;65470;47.324;8.548;2023-03-20T07:16:36;20.00;90.20
32811;DHT22;65470;47.324;8.548;2023-03-20T07:19:02;19.30;90.30
32811;DHT22;65470;47.324;8.548;2023-03-20T07:21:28;18.00;92.00
32811;DHT22;65470;47.324;8.548;2023-03-20T07:23:54;16.30;98.60
32811;DHT22;65470;47.324;8.548;2023-03-20T07:26:20;15.50;99.90
32811;DHT22;65470;47.324;8.548;2023-03-20T07:28:46;14.80;99.90
32811;DHT22;65470;47.324;8.548;2023-03-20T07:31:20;15.50;99.90
32811;DHT22;65470;47.324;8.548;2023-03-20T07:33:46;17.10;99.90
32811;DHT22;65470;47.324;8.548;2023-03-20T07:36:12;18.60;99.90
32811;DHT22;65470;47.324;8.548;2023-03-20T07:38:37;20.20;94.00
32811;DHT22;65470;47.324;8.548;2023-03-20T07:41:03;21.30;88.00
32811;DHT22;65470;47.324;8.548;2023-03-20T07:43:28;21.80;79.20
32811;DHT22;65470;47.324;8.548;2023-03-20T07:45:54;21.00;78.00
32811;DHT22;65470;47.324;8.548;2023-03-20T07:48:20;20.60;82.60
32811;DHT22;65470;47.324;8.548;2023-03-20T07:50:46;19.80;83.70
32811;DHT22;65470;47.324;8.548;2023-03-20T07:53:11;18.50;89.10
32811;DHT22;65470;47.324;8.548;2023-03-20T07:55:37;17.70;91.30
32811;DHT22;65470;47.324;8.548;2023-03-20T07:58:03;17.40;93.70
32811;DHT22;65470;47.324;8.548;2023-03-20T08:00:28;17.50;94.50
32811;DHT22;65470;47.324;8.548;2023-03-20T08:02:54;17.00;94.80
32811;DHT22;65470;47.324;8.548;2023-03-20T08:05:21;16.40;96.30
32811;DHT22;65470;47.324;8.548;2023-03-20T08:07:47;16.40;96.90
32811;DHT22;65470;47.324;8.548;2023-03-20T08:10:12;16.30;99.60
32811;DHT22;65470;47.324;8.548;2023-03-20T08:12:38;16.00;99.90
32811;DHT22;65470;47.324;8.548;2023-03-20T08:15:04;15.50;99.90
32811;DHT22;65470;47.324;8.548;2023-03-20T08:17:30;15.30;99.90
32811;DHT22;65470;47.324;8.548;2023-03-20T08:19:55;14.70;99.90
32811;DHT22;65470;47.324;8.548;2023-03-20T08:22:21;14.50;99.90
32811;DHT22;65470;47.324;8.548;2023-03-20T08:24:47;14.60;99.90
32811;DHT22;65470;47.324;8.548;2023-03-20T08:27:12;14.80;99.90
32811;DHT22;65470;47.324;8.548;2023-03-20T08:29:38;15.00;99.90
32811;DHT22;65470;47.324;8.548;2023-03-20T08:32:04;15.20;99.90
32811;DHT22;65470;47.324;8.548;2023-03-20T08:34:30;15.50;99.90
32811;DHT22;65470;47.324;8.548;2023-03-20T08:36:56;15.70;99.90
32811;DHT22;65470;47.324;8.548;2023-03-20T08:39:22;15.80;99.90
32811;DHT22;65470;47.324;8.548;2023-03-20T08:41:48;15.80;99.90
32811;DHT22;65470;47.324;8.548;2023-03-20T08:44:14;15.80;99.90
32811;DHT22;65470;47.324;8.548;2023-03-20T08:46:40;15.80;99.90
32811;DHT22;65470;47.324;8.548;2023-03-20T08:49:08;15.80;99.90
32811;DHT22;65470;47.324;8.548;2023-03-20T08:51:33;15.80;99.90
32811;DHT22;65470;47.324;8.548;2023-03-20T08:53:59;15.80;99.90
32811;DHT22;65470;47.324;8.548;2023-03-20T08:56:25;16.20;99.90
32811;DHT22;65470;47.324;8.548;2023-03-20T08:58:50;16.40;98.70
32811;DHT22;65470;47.324;8.548;2023-03-20T09:01:18;16.30;98.80
32811;DHT22;65470;47.324;8.548;2023-03-20T09:03:44;16.40;98.60
32811;DHT22;65470;47.324;8.548;2023-03-20T09:06:09;16.40;99.90
32811;DHT22;65470;47.324;8.548;2023-03-20T09:08:35;16.40;99.60
32811;DHT22;65470;47.324;8.548;2023-03-20T09:11:04;16.60;97.10
32811;DHT22;65470;47.324;8.548;2023-03-20T09:13:31;16.60;99.70
32811;DHT22;65470;47.324;8.548;2023-03-20T09:15:57;16.60;99.90
32811;DHT22;65470;47.324;8.548;2023-03-20T09:18:23;16.70;98.40
32811;DHT22;65470;47.324;8.548;2023-03-20T09:20:49;16.80;97.40
32811;DHT22;65470;47.324;8.548;2023-03-20T09:23:15;17.00;94.40
32811;DHT22;65470;47.324;8.548;2023-03-20T09:25:41;17.20;93.90
32811;DHT22;65470;47.324;8.548;2023-03-20T09:28:07;17.60;92.20
32811;DHT22;65470;47.324;8.548;2023-03-20T09:30:32;18.00;90.50
32811;DHT22;65470;47.324;8.548;2023-03-20T09:32:58;18.30;88.80
32811;DHT22;65470;47.324;8.548;2023-03-20T09:35:24;18.60;86.50
32811;DHT22;65470;47.324;8.548;2023-03-20T09:37:50;18.80;84.50
32811;DHT22;65470;47.324;8.548;2023-03-20T09:40:25;19.20;82.80
32811;DHT22;65470;47.324;8.548;2023-03-20T09:43:00;19.00;88.00
32811;DHT22;65470;47.324;8.548;2023-03-20T09:45:45;19.00;84.30
32811;DHT22;65470;47.324;8.548;2023-03-20T09:56:36;19.90;79.60
32811;DHT22;65470;47.324;8.548;2023-03-20T09:59:04;20.60;77.40
32811;DHT22;65470;47.324;8.548;2023-03-20T10:04:22;22.30;68.90
32811;DHT22;65470;47.324;8.548;2023-03-20T10:06:50;21.90;70.60
32811;DHT22;65470;47.324;8.548;2023-03-20T10:09:27;21.50;74.30
32811;DHT22;65470;47.324;8.548;2023-03-20T10:12:22;21.20;73.50
32811;DHT22;65470;47.324;8.548;2023-03-20T10:15:00;20.90;72.00
32811;DHT22;65470;47.324;8.548;2023-03-20T10:20:41;19.80;75.40
32811;DHT22;65470;47.324;8.548;2023-03-20T10:26:04;19.10;77.50
32811;DHT22;65470;47.324;8.548;2023-03-20T10:34:27;18.70;79.30
32811;DHT22;65470;47.324;8.548;2023-03-20T10:39:53;18.30;82.20
32811;DHT22;65470;47.324;8.548;2023-03-20T10:42:29;18.10;83.10
32811;DHT22;65470;47.324;8.548;2023-03-20T10:45:03;17.80;83.20
32811;DHT22;65470;47.324;8.548;2023-03-20T10:47:34;17.50;82.40
32811;DHT22;65470;47.324;8.548;2023-03-20T10:50:05;17.30;84.60
32811;DHT22;65470;47.324;8.548;2023-03-20T10:52:35;17.20;85.10
32811;DHT22;65470;47.324;8.548;2023-03-20T10:55:06;17.00;84.30
32811;DHT22;65470;47.324;8.548;2023-03-20T10:57:37;17.00;83.70
32811;DHT22;65470;47.324;8.548;2023-03-20T11:00:04;16.90;84.20
32811;DHT22;65470;47.324;8.548;2023-03-20T11:02:35;16.90;85.70
32811;DHT22;65470;47.324;8.548;2023-03-20T11:05:33;16.90;84.90
32811;DHT22;65470;47.324;8.548;2023-03-20T11:08:10;16.90;87.10
32811;DHT22;65470;47.324;8.548;2023-03-20T11:10:38;16.80;87.90
32811;DHT22;65470;47.324;8.548;2023-03-20T11:13:40;16.60;90.00
32811;DHT22;65470;47.324;8.548;2023-03-20T11:16:30;16.80;88.50
32811;DHT22;65470;47.324;8.548;2023-03-20T11:19:04;17.00;85.30
32811;DHT22;65470;47.324;8.548;2023-03-20T11:21:30;17.00;89.80
32811;DHT22;65470;47.324;8.548;2023-03-20T11:23:56;16.90;88.70
32811;DHT22;65470;47.324;8.548;2023-03-20T11:26:37;16.90;87.10
32811;DHT22;65470;47.324;8.548;2023-03-20T11:29:13;16.90;88.00
32811;DHT22;65470;47.324;8.548;2023-03-20T11:31:43;17.00;87.20
32811;DHT22;65470;47.324;8.548;2023-03-20T11:37:06;17.40;84.70
32811;DHT22;65470;47.324;8.548;2023-03-20T11:39:30;17.60;83.30
32811;DHT22;65470;47.324;8.548;2023-03-20T11:42:01;18.20;84.10
32811;DHT22;65470;47.324;8.548;2023-03-20T11:44:27;18.70;80.90
32811;DHT22;65470;47.324;8.548;2023-03-20T11:46:59;19.10;80.40
32811;DHT22;65470;47.324;8.548;2023-03-20T11:49:27;19.60;79.10
32811;DHT22;65470;47.324;8.548;2023-03-20T11:51:56;20.40;74.40
32811;DHT22;65470;47.324;8.548;2023-03-20T11:54:24;20.40;72.60
32811;DHT22;65470;47.324;8.548;2023-03-20T11:56:58;20.10;73.40
32811;DHT22;65470;47.324;8.548;2023-03-20T11:59:35;19.90;71.90
32811;DHT22;65470;47.324;8.548;2023-03-20T12:02:03;19.60;72.10
32811;DHT22;65470;47.324;8.548;2023-03-20T12:04:36;19.40;71.60
32811;DHT22;65470;47.324;8.548;2023-03-20T12:07:31;19.10;72.00
32811;DHT22;65470;47.324;8.548;2023-03-20T12:10:02;18.90;74.30
32811;DHT22;65470;47.324;8.548;2023-03-20T12:12:49;18.80;73.70
32811;DHT22;65470;47.324;8.548;2023-03-20T12:20:39;18.30;74.90
32811;DHT22;65470;47.324;8.548;2023-03-20T12:25:58;18.00;77.10
32811;DHT22;65470;47.324;8.548;2023-03-20T12:34:16;17.80;73.80
32811;DHT22;65470;47.324;8.548;2023-03-20T12:36:46;17.60;75.30
32811;DHT22;65470;47.324;8.548;2023-03-20T12:39:16;17.50;76.70
32811;DHT22;65470;47.324;8.548;2023-03-20T12:50:34;17.50;75.40
32811;DHT22;65470;47.324;8.548;2023-03-20T12:55:59;17.70;76.30
32811;DHT22;65470;47.324;8.548;2023-03-20T12:59:00;17.80;76.40
32811;DHT22;65470;47.324;8.548;2023-03-20T13:06:42;17.90;75.90
32811;DHT22;65470;47.324;8.548;2023-03-20T13:09:40;17.80;76.80
32811;DHT22;65470;47.324;8.548;2023-03-20T13:12:22;17.80;74.60
32811;DHT22;65470;47.324;8.548;2023-03-20T13:20:54;17.40;76.00
32811;DHT22;65470;47.324;8.548;2023-03-20T13:23:37;17.20;77.00
32811;DHT22;65470;47.324;8.548;2023-03-20T13:26:34;17.10;78.70
32811;DHT22;65470;47.324;8.548;2023-03-20T13:29:22;17.30;77.20
32811;DHT22;65470;47.324;8.548;2023-03-20T13:37:32;17.20;77.30
32811;DHT22;65470;47.324;8.548;2023-03-20T13:40:05;17.10;78.20
32811;DHT22;65470;47.324;8.548;2023-03-20T13:42:37;17.20;79.40
32811;DHT22;65470;47.324;8.548;2023-03-20T13:45:37;17.10;77.60
32811;DHT22;65470;47.324;8.548;2023-03-20T14:04:35;17.40;79.00
32811;DHT22;65470;47.324;8.548;2023-03-20T14:07:01;17.50;78.90
32811;DHT22;65470;47.324;8.548;2023-03-20T14:12:11;19.50;73.80
32811;DHT22;65470;47.324;8.548;2023-03-20T14:14:44;20.30;70.00
32811;DHT22;65470;47.324;8.548;2023-03-20T14:17:17;20.70;69.10
32811;DHT22;65470;47.324;8.548;2023-03-20T14:19:45;21.50;66.60
32811;DHT22;65470;47.324;8.548;2023-03-20T14:22:20;22.70;66.20
32811;DHT22;65470;47.324;8.548;2023-03-20T14:24:52;23.40;62.70
32811;DHT22;65470;47.324;8.548;2023-03-20T14:27:20;23.40;59.00
32811;DHT22;65470;47.324;8.548;2023-03-20T14:29:49;22.60;60.30
32811;DHT22;65470;47.324;8.548;2023-03-20T14:35:17;21.00;62.90
32811;DHT22;65470;47.324;8.548;2023-03-20T14:52:30;19.10;70.60
32811;DHT22;65470;47.324;8.548;2023-03-20T14:55:14;18.80;71.10
32811;DHT22;65470;47.324;8.548;2023-03-20T14:57:52;18.50;70.20
32811;DHT22;65470;47.324;8.548;2023-03-20T15:02:48;18.30;70.10
32811;DHT22;65470;47.324;8.548;2023-03-20T15:05:30;18.40;69.50
32811;DHT22;65470;47.324;8.548;2023-03-20T15:08:19;18.60;69.50
32811;DHT22;65470;47.324;8.548;2023-03-20T15:10:50;18.50;69.70
32811;DHT22;65470;47.324;8.548;2023-03-20T15:13:16;18.30;69.60
32811;DHT22;65470;47.324;8.548;2023-03-20T15:16:04;18.90;70.00
32811;DHT22;65470;47.324;8.548;2023-03-20T15:18:40;19.90;68.70
32811;DHT22;65470;47.324;8.548;2023-03-20T15:21:13;20.80;67.00
32811;DHT22;65470;47.324;8.548;2023-03-20T15:23:43;21.00;64.20
32811;DHT22;65470;47.324;8.548;2023-03-20T15:26:10;21.10;64.70
32811;DHT22;65470;47.324;8.548;2023-03-20T15:28:38;21.10;65.50
32811;DHT22;65470;47.324;8.548;2023-03-20T15:31:05;21.30;64.60
32811;DHT22;65470;47.324;8.548;2023-03-20T15:33:34;21.50;64.40
32811;DHT22;65470;47.324;8.548;2023-03-20T15:36:13;21.80;63.60
32811;DHT22;65470;47.324;8.548;2023-03-20T15:38:40;21.80;62.50
32811;DHT22;65470;47.324;8.548;2023-03-20T15:41:07;21.80;62.20
32811;DHT22;65470;47.324;8.548;2023-03-20T15:43:33;21.40;61.20
32811;DHT22;65470;47.324;8.548;2023-03-20T15:46:03;20.90;62.00
32811;DHT22;65470;47.324;8.548;2023-03-20T15:48:29;20.20;63.80
32811;DHT22;65470;47.324;8.548;2023-03-20T15:50:58;19.50;66.40
32811;DHT22;65470;47.324;8.548;2023-03-20T15:53:45;18.70;68.70
32811;DHT22;65470;47.324;8.548;2023-03-20T15:56:17;18.00;71.10
32811;DHT22;65470;47.324;8.548;2023-03-20T15:58:44;17.50;72.70
32811;DHT22;65470;47.324;8.548;2023-03-20T16:01:16;17.00;75.60
32811;DHT22;65470;47.324;8.548;2023-03-20T16:03:42;16.70;76.10
32811;DHT22;65470;47.324;8.548;2023-03-20T16:06:10;16.40;76.60
32811;DHT22;65470;47.324;8.548;2023-03-20T16:08:36;16.10;78.00
32811;DHT22;65470;47.324;8.548;2023-03-20T16:11:14;15.80;80.50
32811;DHT22;65470;47.324;8.548;2023-03-20T16:13:42;15.60;79.60
32811;DHT22;65470;47.324;8.548;2023-03-20T16:16:22;15.30;80.20
32811;DHT22;65470;47.324;8.548;2023-03-20T16:18:48;15.10;79.70
32811;DHT22;65470;47.324;8.548;2023-03-20T16:21:25;15.00;79.90
32811;DHT22;65470;47.324;8.548;2023-03-20T16:23:53;14.90;80.30
32811;DHT22;65470;47.324;8.548;2023-03-20T16:26:22;14.80;81.30
32811;DHT22;65470;47.324;8.548;2023-03-20T16:28:50;14.60;82.00
32811;DHT22;65470;47.324;8.548;2023-03-20T16:33:44;14.40;83.80
32811;DHT22;65470;47.324;8.548;2023-03-20T16:36:27;14.40;84.30
32811;DHT22;65470;47.324;8.548;2023-03-20T16:38:55;14.30;85.40
32811;DHT22;65470;47.324;8.548;2023-03-20T16:41:28;14.20;85.80
32811;DHT22;65470;47.324;8.548;2023-03-20T16:43:55;14.10;86.90
32811;DHT22;65470;47.324;8.548;2023-03-20T16:46:23;13.90;86.80
32811;DHT22;65470;47.324;8.548;2023-03-20T16:48:55;13.90;88.00
32811;DHT22;65470;47.324;8.548;2023-03-20T16:51:29;13.90;88.50
32811;DHT22;65470;47.324;8.548;2023-03-20T16:53:57;13.90;88.70
32811;DHT22;65470;47.324;8.548;2023-03-20T16:56:36;13.90;90.00
32811;DHT22;65470;47.324;8.548;2023-03-20T16:59:15;13.80;90.30
32811;DHT22;65470;47.324;8.548;2023-03-20T17:01:43;13.80;90.30
32811;DHT22;65470;47.324;8.548;2023-03-20T17:04:33;13.70;90.60
32811;DHT22;65470;47.324;8.548;2023-03-20T17:07:10;13.70;91.00
32811;DHT22;65470;47.324;8.548;2023-03-20T17:09:54;13.60;90.70
32811;DHT22;65470;47.324;8.548;2023-03-20T17:12:23;13.70;90.80
32811;DHT22;65470;47.324;8.548;2023-03-20T17:14:50;13.60;91.20
32811;DHT22;65470;47.324;8.548;2023-03-20T17:17:18;13.50;91.70
32811;DHT22;65470;47.324;8.548;2023-03-20T17:19:45;13.40;92.20
32811;DHT22;65470;47.324;8.548;2023-03-20T17:22:29;13.30;92.60
32811;DHT22;65470;47.324;8.548;2023-03-20T17:24:55;13.20;93.40
32811;DHT22;65470;47.324;8.548;2023-03-20T17:27:21;13.10;93.90
32811;DHT22;65470;47.324;8.548;2023-03-20T17:29:48;13.10;94.20
32811;DHT22;65470;47.324;8.548;2023-03-20T17:32:18;13.00;95.30
32811;DHT22;65470;47.324;8.548;2023-03-20T17:34:45;12.90;96.50
32811;DHT22;65470;47.324;8.548;2023-03-20T17:37:16;12.90;98.10
32811;DHT22;65470;47.324;8.548;2023-03-20T17:39:42;12.80;99.60
32811;DHT22;65470;47.324;8.548;2023-03-20T17:42:22;12.70;99.90
32811;DHT22;65470;47.324;8.548;2023-03-20T17:44:51;12.70;99.90
32811;DHT22;65470;47.324;8.548;2023-03-20T17:47:18;12.70;99.90
32811;DHT22;65470;47.324;8.548;2023-03-20T17:49:46;12.70;99.90
32811;DHT22;65470;47.324;8.548;2023-03-20T17:52:14;12.70;99.90
32811;DHT22;65470;47.324;8.548;2023-03-20T17:54:41;12.70;99.90
32811;DHT22;65470;47.324;8.548;2023-03-20T17:59:44;12.80;99.90
32811;DHT22;65470;47.324;8.548;2023-03-20T18:02:10;12.80;99.90
32811;DHT22;65470;47.324;8.548;2023-03-20T18:04:36;12.80;99.90
32811;DHT22;65470;47.324;8.548;2023-03-20T18:07:02;12.70;99.90
32811;DHT22;65470;47.324;8.548;2023-03-20T18:09:28;12.80;99.90
32811;DHT22;65470;47.324;8.548;2023-03-20T18:11:55;12.80;99.90
32811;DHT22;65470;47.324;8.548;2023-03-20T18:14:21;12.80;99.90
32811;DHT22;65470;47.324;8.548;2023-03-20T18:16:46;12.70;99.90
32811;DHT22;65470;47.324;8.548;2023-03-20T18:19:21;12.80;99.90